Atlanta, Mississippi
Current Conditions -  °F | °C
As of 3:55 PM on Tuesday 25 Nov 2014 (Local Time) from KSTF Reporting Station
Clear Clear  
Wind Chill: 46°   Ceiling: Unl
Heat Index: 46°   Visibility: NA
Dew Point: 30°   Wind: 3mph
Humidity: 53%   Direction: 330°NNW
Pressure: 30.13"   Gusts: NA
Location:  33.7962°N, 89.0553°W
Report Text: KSTF 252155Z AUTO 33003KT CLR 08/M01 A3013 RMK AO2 PWINO
Loading
Personal Weather Stations






























Interactive Weather Map New forecast layout! Learn more

10-Day Weather Forecast

Advertisements
Track Severe Weather on mobile